KEBS/EBS METAR and TAF weather

Enter ICAO airport designator
Station Type Date Time Source
KEBS METAR 2020/07/12 18:15 UTC NOAA

KEBS 121815Z AUTO 35006G11KT 10SM SCT045 27/19 A2996 RMK AO2


Station Type Date Time Source
KEBS Decoded METAR 2020/07/12 18:15 UTC NOAA

Webster City, IA, United States (KEBS) 42-26N 093-52W
Jul 12, 2020 - 02:15 PM EDT / 2020.07.12 1815 UTC
Wind: from the N (350 degrees) at 7 MPH (6 KT) gusting to 13 MPH (11 KT):0
Visibility: 10 mile(s):0
Sky conditions: partly cloudy
Temperature: 80 F (27 C)
Dew Point: 66 F (19 C)
Relative Humidity: 61%
Pressure (altimeter): 29.96 in. Hg (1014 hPa)
ob: KEBS 121815Z AUTO 35006G11KT 10SM SCT045 27/19 A2996 RMK AO2
cycle: 18

Station Type Date Time Source
KEBS TAF UTC NOAA

Error!

Example: see airport list